createdAt,value
2018-07-19T00:01:06.533Z,98538.71
2018-07-19T00:03:35.095Z,98548.62
2018-07-19T00:06:03.625Z,98543.45
2018-07-19T00:08:32.223Z,98544.52
2018-07-19T00:11:01.018Z,98541.64
2018-07-19T00:13:29.588Z,98541.41
2018-07-19T00:15:58.101Z,98542.45
2018-07-19T00:18:27.298Z,98549.26
2018-07-19T00:20:57.437Z,98550.02
2018-07-19T00:23:26.671Z,98552.95
2018-07-19T00:25:56.179Z,98553.17
2018-07-19T00:28:25.097Z,98552.20
2018-07-19T00:30:53.598Z,98555.57
2018-07-19T00:33:22.434Z,98557.24
2018-07-19T00:35:51.412Z,98559.30
2018-07-19T00:38:20.117Z,98558.83
2018-07-19T00:40:48.797Z,98561.77
2018-07-19T00:43:17.603Z,98557.41
2018-07-19T00:45:46.175Z,98546.30
2018-07-19T00:48:14.708Z,98545.32
2018-07-19T00:50:43.287Z,98532.83
2018-07-19T00:53:11.870Z,98544.19
2018-07-19T00:55:40.925Z,98541.30
2018-07-19T00:58:09.483Z,98543.20
2018-07-19T01:00:38.135Z,98544.10
2018-07-19T01:03:06.755Z,98547.34
2018-07-19T01:05:35.418Z,98541.09
2018-07-19T01:08:04.388Z,98548.55
2018-07-19T01:10:33.403Z,98544.48
2018-07-19T01:13:01.994Z,98544.16
2018-07-19T01:15:30.598Z,98546.20
2018-07-19T01:17:59.257Z,98548.62
2018-07-19T01:20:28.777Z,98544.92
2018-07-19T01:22:57.344Z,98549.36
2018-07-19T01:25:25.954Z,98549.36
2018-07-19T01:27:54.494Z,98550.34
2018-07-19T01:30:23.032Z,98551.17
2018-07-19T01:32:51.808Z,98553.72
2018-07-19T01:35:20.405Z,98557.95
2018-07-19T01:37:48.911Z,98554.78
2018-07-19T01:40:17.414Z,98550.05
2018-07-19T01:42:46.400Z,98553.09
2018-07-19T01:45:15.273Z,98551.94
2018-07-19T01:47:43.807Z,98560.95
2018-07-19T01:50:12.740Z,98564.70
2018-07-19T01:52:41.306Z,98560.64
2018-07-19T02:02:43.106Z,98560.09
2018-07-19T02:05:11.722Z,98561.77
2018-07-19T02:07:40.473Z,98563.13
2018-07-19T02:10:09.094Z,98565.51
2018-07-19T02:12:37.622Z,98567.89
2018-07-19T02:15:06.816Z,98565.86
2018-07-19T02:17:35.458Z,98563.84
2018-07-19T02:20:04.146Z,98564.19
2018-07-19T02:22:32.630Z,98562.00
2018-07-19T02:25:01.184Z,98564.90
2018-07-19T02:27:29.750Z,98563.22
2018-07-19T02:29:58.959Z,98568.63
2018-07-19T02:32:27.626Z,98568.47
2018-07-19T02:34:56.202Z,98574.04
2018-07-19T02:37:25.205Z,98566.79
2018-07-19T02:39:54.157Z,98566.28
2018-07-19T02:42:22.706Z,98573.23
2018-07-19T02:44:51.261Z,98573.06
2018-07-19T02:47:19.922Z,98569.33
2018-07-19T02:49:48.421Z,98573.39
2018-07-19T02:52:16.946Z,98574.26
2018-07-19T02:54:45.564Z,98575.77
2018-07-19T02:57:14.314Z,98573.39
2018-07-19T02:59:42.862Z,98567.47
2018-07-19T03:02:11.791Z,98570.02
2018-07-19T03:04:40.308Z,98566.30
2018-07-19T03:07:08.863Z,98564.27
2018-07-19T03:09:37.400Z,98567.98
2018-07-19T03:12:06.039Z,98564.62
2018-07-19T03:14:34.865Z,98566.97
2018-07-19T03:17:03.397Z,98564.60
2018-07-19T03:19:32.062Z,98562.57
2018-07-19T03:22:04.430Z,98563.27
2018-07-19T03:24:32.965Z,98565.29
2018-07-19T03:27:01.489Z,98562.59
2018-07-19T03:29:30.243Z,98560.56
2018-07-19T03:31:58.791Z,98563.59
2018-07-19T03:34:27.432Z,98567.16
2018-07-19T03:36:55.974Z,98561.08
2018-07-19T03:39:24.561Z,98563.09
2018-07-19T03:41:53.107Z,98562.09
2018-07-19T03:44:21.743Z,98562.27
2018-07-19T03:46:50.376Z,98563.60
2018-07-19T03:49:18.996Z,98566.14
2018-07-19T03:51:47.753Z,98563.94
2018-07-19T03:54:16.482Z,98563.59
2018-07-19T03:56:45.119Z,98567.31
2018-07-19T03:59:13.697Z,98574.75
2018-07-19T04:01:42.261Z,98577.11
2018-07-19T04:04:10.875Z,98574.75
2018-07-19T04:06:39.321Z,98582.86
2018-07-19T04:09:08.401Z,98581.67
2018-07-19T04:11:37.040Z,98582.55
2018-07-19T04:14:05.982Z,98583.38
2018-07-19T04:16:34.590Z,98580.84
2018-07-19T04:19:03.232Z,98578.14
2018-07-19T04:21:31.912Z,98579.84
2018-07-19T04:24:00.572Z,98582.20
2018-07-19T04:26:29.314Z,98583.05
2018-07-19T04:28:57.894Z,98587.26
2018-07-19T04:31:26.411Z,98585.92
2018-07-19T04:33:54.953Z,98589.62
2018-07-19T04:36:23.464Z,98596.03
2018-07-19T04:38:52.079Z,98603.63
2018-07-19T04:41:20.675Z,98607.03
2018-07-19T04:43:49.262Z,98606.50
2018-07-19T04:46:17.810Z,98602.78
2018-07-19T04:48:46.473Z,98601.05
2018-07-19T04:51:15.177Z,98598.34
2018-07-19T04:53:44.149Z,98601.72
2018-07-19T04:56:12.670Z,98601.36
2018-07-19T04:58:41.246Z,98602.48
2018-07-19T05:01:09.921Z,98601.61
2018-07-19T05:03:38.615Z,98598.55
2018-07-19T05:06:07.188Z,98600.85
2018-07-19T05:08:35.826Z,98600.16
2018-07-19T05:11:04.321Z,98598.95
2018-07-19T05:13:32.875Z,98596.65
2018-07-19T05:16:01.354Z,98601.33
2018-07-19T05:18:30.139Z,98609.75
2018-07-19T05:20:58.810Z,98616.61
2018-07-19T05:23:27.339Z,98612.38
2018-07-19T05:25:56.014Z,98612.08
2018-07-19T05:28:24.781Z,98612.46
2018-07-19T05:30:53.605Z,98617.22
2018-07-19T05:33:22.175Z,98613.87
2018-07-19T05:35:50.759Z,98616.39
2018-07-19T05:38:19.282Z,98611.36
2018-07-19T05:40:47.898Z,98615.71
2018-07-19T05:43:16.693Z,98607.51
2018-07-19T05:45:45.361Z,98606.50
2018-07-19T05:48:13.854Z,98611.16
2018-07-19T05:50:42.384Z,98611.61
2018-07-19T05:53:11.146Z,98613.97
2018-07-19T05:55:39.787Z,98606.83
2018-07-19T05:58:08.333Z,98607.66
2018-07-19T06:00:36.811Z,98609.29
2018-07-19T06:03:05.594Z,98612.21
2018-07-19T06:05:34.250Z,98615.24
2018-07-19T06:08:02.726Z,98611.52
2018-07-19T06:10:31.424Z,98610.65
2018-07-19T06:13:00.027Z,98598.87
2018-07-19T06:15:28.656Z,98596.13
2018-07-19T06:17:57.194Z,98585.52
2018-07-19T06:20:25.702Z,98593.88
2018-07-19T06:22:54.316Z,98596.56
2018-07-19T06:25:23.378Z,98601.23
2018-07-19T06:27:53.626Z,98602.70
2018-07-19T06:30:22.180Z,98599.70
2018-07-19T06:32:50.750Z,98601.25
2018-07-19T06:35:19.407Z,98601.14
2018-07-19T06:37:48.110Z,98597.03
2018-07-19T06:40:16.997Z,98601.10
2018-07-19T06:42:45.549Z,98600.02
2018-07-19T06:45:14.182Z,98594.89
2018-07-19T06:47:42.710Z,98598.54
2018-07-19T06:50:11.278Z,98601.58
2018-07-19T06:52:39.879Z,98600.35
2018-07-19T06:55:08.443Z,98601.98
2018-07-19T06:57:37.110Z,98598.25
2018-07-19T07:00:07.139Z,98601.28
2018-07-19T07:02:35.721Z,98600.63
2018-07-19T07:05:04.895Z,98604.08
2018-07-19T07:07:33.404Z,98604.29
2018-07-19T07:10:02.083Z,98609.02
2018-07-19T07:12:30.772Z,98615.09
2018-07-19T07:14:59.542Z,98612.77
2018-07-19T07:17:28.052Z,98613.13
2018-07-19T07:19:56.663Z,98611.65
2018-07-19T07:22:25.210Z,98617.59
2018-07-19T07:24:53.896Z,98616.95
2018-07-19T07:27:22.507Z,98619.70
2018-07-19T07:29:51.190Z,98621.25
2018-07-19T07:32:19.758Z,98623.52
2018-07-19T07:34:48.402Z,98615.33
2018-07-19T07:37:17.186Z,98619.25
2018-07-19T07:39:45.752Z,98612.44
2018-07-19T07:42:14.326Z,98611.50
2018-07-19T07:44:43.142Z,98610.00
2018-07-19T07:47:11.790Z,98619.05
2018-07-19T07:49:40.361Z,98616.52
2018-07-19T07:52:09.701Z,98628.19
2018-07-19T07:54:38.198Z,98624.09
2018-07-19T07:57:06.977Z,98630.34
2018-07-19T07:59:35.706Z,98627.55
2018-07-19T08:02:04.550Z,98628.23
2018-07-19T08:04:33.109Z,98619.39
2018-07-19T08:07:01.719Z,98622.39
2018-07-19T08:09:30.306Z,98623.41
2018-07-19T08:11:58.930Z,98620.77
2018-07-19T08:14:27.548Z,98616.53
2018-07-19T08:16:56.203Z,98616.67
2018-07-19T08:19:24.815Z,98613.48
2018-07-19T08:21:53.401Z,98613.59
2018-07-19T08:24:21.990Z,98615.36
2018-07-19T08:26:50.549Z,98609.54
2018-07-19T08:29:19.179Z,98608.77
2018-07-19T08:31:47.845Z,98610.28
2018-07-19T08:34:16.416Z,98612.69
2018-07-19T08:36:45.017Z,98609.97
2018-07-19T08:39:14.637Z,98612.30
2018-07-19T08:41:44.230Z,98611.63
2018-07-19T08:44:12.821Z,98609.06
2018-07-19T08:46:41.373Z,98606.81
2018-07-19T08:49:09.980Z,98607.27
2018-07-19T08:51:39.513Z,98609.33
2018-07-19T08:54:08.056Z,98605.14
2018-07-19T08:56:36.783Z,98602.98
2018-07-19T08:59:05.574Z,98601.37
2018-07-19T09:01:34.176Z,98607.17
2018-07-19T09:04:02.699Z,98612.89
2018-07-19T09:06:31.263Z,98603.76
2018-07-19T09:08:59.899Z,98603.64
2018-07-19T09:11:28.463Z,98604.22
2018-07-19T09:13:57.050Z,98604.25
2018-07-19T09:16:25.800Z,98607.07
2018-07-19T09:18:54.326Z,98603.08
2018-07-19T09:21:22.916Z,98602.88
2018-07-19T09:23:51.455Z,98602.31
2018-07-19T09:26:20.155Z,98600.65
2018-07-19T09:28:48.726Z,98596.08
2018-07-19T09:31:17.722Z,98591.64
2018-07-19T09:33:46.537Z,98592.36
2018-07-19T09:36:15.074Z,98596.23
2018-07-19T09:38:43.574Z,98600.73
2018-07-19T09:41:12.138Z,98589.89
2018-07-19T09:43:40.783Z,98586.54
2018-07-19T09:46:09.296Z,98586.05
2018-07-19T09:48:37.822Z,98586.75
2018-07-19T09:51:06.285Z,98583.73
2018-07-19T09:53:35.014Z,98586.20
2018-07-19T09:56:03.587Z,98588.53
2018-07-19T09:58:32.280Z,98586.48
2018-07-19T10:01:01.646Z,98582.64
2018-07-19T10:03:30.229Z,98585.81
2018-07-19T10:05:58.892Z,98587.58
2018-07-19T10:08:27.460Z,98585.11
2018-07-19T10:10:56.252Z,98585.06
2018-07-19T10:13:24.811Z,98579.05
2018-07-19T10:15:53.542Z,98582.66
2018-07-19T10:18:22.169Z,98580.10
2018-07-19T10:20:50.767Z,98572.20
2018-07-19T10:23:19.631Z,98569.98
2018-07-19T10:25:48.328Z,98573.80
2018-07-19T10:28:17.050Z,98570.55
2018-07-19T10:30:45.680Z,98565.03
2018-07-19T10:33:14.238Z,98559.80
2018-07-19T10:35:42.751Z,98557.27
2018-07-19T10:38:11.314Z,98560.76
2018-07-19T10:40:39.956Z,98552.17
2018-07-19T10:43:08.860Z,98553.40
2018-07-19T10:45:37.476Z,98553.42
2018-07-19T10:48:06.190Z,98551.44
2018-07-19T10:50:34.779Z,98548.84
2018-07-19T10:53:03.630Z,98547.74
2018-07-19T10:55:32.215Z,98539.97
2018-07-19T10:58:01.426Z,98544.25
2018-07-19T11:00:30.082Z,98543.13
2018-07-19T11:02:58.549Z,98539.84
2018-07-19T11:05:27.436Z,98532.66
2018-07-19T11:07:56.090Z,98528.56
2018-07-19T11:10:25.015Z,98530.75
2018-07-19T11:12:53.499Z,98528.70
2018-07-19T11:15:22.088Z,98533.62
2018-07-19T11:17:50.649Z,98516.59
2018-07-19T11:20:19.167Z,98524.12
2018-07-19T11:22:47.871Z,98515.04
2018-07-19T11:25:16.508Z,98510.95
2018-07-19T11:27:45.022Z,98514.61
2018-07-19T11:30:13.547Z,98515.88
2018-07-19T11:32:42.118Z,98515.03
2018-07-19T11:35:10.728Z,98514.34
2018-07-19T11:37:39.269Z,98505.83
2018-07-19T11:40:07.798Z,98503.38
2018-07-19T11:42:36.410Z,98501.69
2018-07-19T11:45:05.185Z,98501.69
2018-07-19T11:47:33.776Z,98502.45
2018-07-19T11:50:02.321Z,98509.86
2018-07-19T11:52:31.230Z,98503.16
2018-07-19T11:54:59.851Z,98505.87
2018-07-19T11:57:28.438Z,98493.66
2018-07-19T11:59:56.969Z,98492.39
2018-07-19T12:02:25.477Z,98493.97
2018-07-19T12:04:54.058Z,98492.92
2018-07-19T12:07:22.604Z,98484.52
2018-07-19T12:09:51.080Z,98475.98
2018-07-19T12:12:19.620Z,98477.81
2018-07-19T12:14:48.186Z,98471.83
2018-07-19T12:17:16.726Z,98469.39
2018-07-19T12:19:45.281Z,98471.16
2018-07-19T12:22:14.394Z,98467.73
2018-07-19T12:24:43.189Z,98466.61
2018-07-19T12:27:11.681Z,98465.41
2018-07-19T12:29:40.404Z,98469.86
2018-07-19T12:32:09.061Z,98461.73
2018-07-19T12:34:37.526Z,98461.78
2018-07-19T12:37:06.070Z,98470.48
2018-07-19T12:39:34.626Z,98456.94
2018-07-19T12:42:03.300Z,98448.05
2018-07-19T12:44:31.802Z,98452.97
2018-07-19T12:47:00.470Z,98448.25
2018-07-19T12:49:32.209Z,98452.00
2018-07-19T12:52:00.798Z,98456.61
2018-07-19T12:54:29.259Z,98461.90
2018-07-19T12:56:58.049Z,98457.49
2018-07-19T12:59:26.623Z,98451.91
2018-07-19T13:01:55.212Z,98457.20
2018-07-19T13:04:24.103Z,98449.34
2018-07-19T13:06:52.619Z,98447.27
2018-07-19T13:09:21.164Z,98448.55
2018-07-19T13:11:49.979Z,98444.95
2018-07-19T13:14:22.796Z,98439.27
2018-07-19T13:16:51.506Z,98438.76
2018-07-19T13:19:20.686Z,98442.30
2018-07-19T13:21:49.319Z,98437.38
2018-07-19T13:24:18.027Z,98436.06
2018-07-19T13:26:46.963Z,98435.38
2018-07-19T13:29:15.490Z,98431.81
2018-07-19T13:31:44.077Z,98431.72
2018-07-19T13:34:12.842Z,98426.78
2018-07-19T13:36:41.446Z,98435.07
2018-07-19T13:39:11.017Z,98421.53
2018-07-19T13:41:39.749Z,98423.23
2018-07-19T13:44:08.301Z,98412.54
2018-07-19T13:46:36.890Z,98415.16
2018-07-19T13:49:05.622Z,98419.98
2018-07-19T13:51:34.203Z,98414.91
2018-07-19T13:54:25.142Z,98417.37
2018-07-19T13:56:53.700Z,98420.41
2018-07-19T13:59:22.432Z,98417.39
2018-07-19T14:01:51.023Z,98415.05
2018-07-19T14:04:19.747Z,98409.86
2018-07-19T14:06:48.363Z,98413.68
2018-07-19T14:09:16.942Z,98406.56
2018-07-19T14:11:45.735Z,98400.11
2018-07-19T14:14:14.321Z,98404.54
2018-07-19T14:16:42.990Z,98402.58
2018-07-19T14:19:11.707Z,98396.98
2018-07-19T14:21:40.273Z,98386.61
2018-07-19T14:24:09.074Z,98392.45
2018-07-19T14:26:37.611Z,98388.23
2018-07-19T14:29:06.472Z,98386.23
2018-07-19T14:31:35.426Z,98382.72
2018-07-19T14:34:04.027Z,98386.20
2018-07-19T14:36:32.544Z,98377.59
2018-07-19T14:39:01.021Z,98374.52
2018-07-19T14:41:29.500Z,98379.16
2018-07-19T14:43:58.002Z,98375.89
2018-07-19T14:46:26.558Z,98373.73
2018-07-19T14:48:55.062Z,98373.20
2018-07-19T14:51:23.715Z,98366.09
2018-07-19T14:53:52.286Z,98365.73
2018-07-19T14:56:20.781Z,98367.03
2018-07-19T14:58:49.430Z,98372.66
2018-07-19T15:01:18.016Z,98366.00
2018-07-19T15:03:46.653Z,98354.75
2018-07-19T15:06:15.298Z,98350.66
2018-07-19T15:08:44.285Z,98348.90
2018-07-19T15:11:12.981Z,98338.65
2018-07-19T15:13:41.546Z,98346.87
2018-07-19T15:16:10.197Z,98339.44
2018-07-19T15:18:38.863Z,98341.83
2018-07-19T15:21:07.386Z,98340.30
2018-07-19T15:23:36.091Z,98335.27
2018-07-19T15:26:04.721Z,98326.36
2018-07-19T15:28:33.274Z,98328.62
2018-07-19T15:31:01.810Z,98326.03
2018-07-19T15:33:30.421Z,98323.87
2018-07-19T15:35:59.002Z,98316.13
2018-07-19T15:38:27.603Z,98325.53
2018-07-19T15:40:56.186Z,98322.43
2018-07-19T15:43:24.820Z,98323.06
2018-07-19T15:45:53.452Z,98328.27
2018-07-19T15:48:21.970Z,98311.20
2018-07-19T15:50:50.496Z,98317.77
2018-07-19T15:53:19.127Z,98311.50
2018-07-19T15:55:47.846Z,98306.39
2018-07-19T15:58:16.466Z,98308.14
2018-07-19T16:00:45.026Z,98303.91
2018-07-19T16:03:13.674Z,98301.63
2018-07-19T16:05:42.304Z,98291.04
2018-07-19T16:08:10.946Z,98296.19
2018-07-19T16:10:39.544Z,98301.06
2018-07-19T16:13:08.191Z,98293.33
2018-07-19T16:15:36.874Z,98296.45
2018-07-19T16:18:05.452Z,98291.11
2018-07-19T16:20:34.093Z,98296.19
2018-07-19T16:23:02.738Z,98288.11
2018-07-19T16:25:31.310Z,98289.61
2018-07-19T16:27:59.937Z,98283.06
2018-07-19T16:30:28.490Z,98288.99
2018-07-19T16:32:57.085Z,98287.63
2018-07-19T16:35:25.941Z,98283.73
2018-07-19T16:37:54.479Z,98279.59
2018-07-19T16:40:23.212Z,98284.92
2018-07-19T16:42:51.888Z,98279.27
2018-07-19T16:45:20.471Z,98283.14
2018-07-19T16:47:49.247Z,98291.09
2018-07-19T16:50:18.049Z,98290.25
2018-07-19T16:52:46.659Z,98277.66
2018-07-19T16:55:15.250Z,98284.13
2018-07-19T16:57:43.823Z,98278.87
2018-07-19T17:00:12.617Z,98281.27
2018-07-19T17:02:41.163Z,98272.98
2018-07-19T17:05:09.727Z,98276.01
2018-07-19T17:07:38.503Z,98281.34
2018-07-19T17:10:07.744Z,98272.45
2018-07-19T17:12:36.601Z,98263.55
2018-07-19T17:15:06.027Z,98271.41
2018-07-19T17:17:34.563Z,98277.45
2018-07-19T17:20:03.046Z,98279.38
2018-07-19T17:22:31.636Z,98276.12
2018-07-19T17:25:00.246Z,98278.47
2018-07-19T17:27:29.410Z,98283.33
2018-07-19T17:30:02.281Z,98284.48
2018-07-19T17:32:30.880Z,98285.09
2018-07-19T17:34:59.454Z,98282.10
2018-07-19T17:37:27.991Z,98280.43
2018-07-19T17:39:56.522Z,98289.34
2018-07-19T17:42:25.064Z,98280.39
2018-07-19T17:44:53.574Z,98278.78
2018-07-19T17:47:22.580Z,98277.30
2018-07-19T17:49:51.119Z,98282.19
2018-07-19T17:52:19.655Z,98276.30
2018-07-19T17:54:48.328Z,98271.63
2018-07-19T17:57:16.873Z,98270.30
2018-07-19T17:59:45.765Z,98272.18
2018-07-19T18:02:14.391Z,98269.77
2018-07-19T18:04:42.975Z,98279.39
2018-07-19T18:07:11.646Z,98283.67
2018-07-19T18:09:40.198Z,98287.20
2018-07-19T18:12:09.099Z,98286.06
2018-07-19T18:14:38.079Z,98287.13
2018-07-19T18:17:06.733Z,98286.87
2018-07-19T18:19:39.602Z,98284.91
2018-07-19T18:22:08.270Z,98295.33
2018-07-19T18:24:36.847Z,98292.91
2018-07-19T18:27:05.899Z,98294.95
2018-07-19T18:29:34.436Z,98297.42
2018-07-19T18:32:03.043Z,98303.44
2018-07-19T18:34:31.781Z,98303.66
2018-07-19T18:37:00.464Z,98301.70
2018-07-19T18:39:29.057Z,98304.41
2018-07-19T18:41:57.591Z,98295.56
2018-07-19T18:44:26.230Z,98299.61
2018-07-19T18:46:55.067Z,98304.20
2018-07-19T18:49:23.905Z,98300.48
2018-07-19T18:51:52.749Z,98305.11
2018-07-19T18:54:21.292Z,98298.66
2018-07-19T18:56:50.161Z,98300.03
2018-07-19T18:59:18.968Z,98299.86
2018-07-19T19:01:47.830Z,98304.62
2018-07-19T19:04:16.501Z,98304.66
2018-07-19T19:06:45.007Z,98298.83
2018-07-19T19:09:13.587Z,98302.33
2018-07-19T19:11:42.253Z,98306.23
2018-07-19T19:14:11.067Z,98303.88
2018-07-19T19:16:39.679Z,98313.27
2018-07-19T19:19:08.358Z,98311.62
2018-07-19T19:21:37.211Z,98312.50
2018-07-19T19:24:05.999Z,98315.61
2018-07-19T19:26:34.684Z,98320.67
2018-07-19T19:29:03.315Z,98324.72
2018-07-19T19:31:32.292Z,98324.06
2018-07-19T19:34:00.866Z,98324.17
2018-07-19T19:36:29.703Z,98330.55
2018-07-19T19:38:58.263Z,98328.29
2018-07-19T19:41:27.444Z,98328.04
2018-07-19T19:43:56.177Z,98333.69
2018-07-19T19:46:24.918Z,98336.08
2018-07-19T19:48:54.179Z,98334.45
2018-07-19T19:51:23.075Z,98338.73
2018-07-19T19:53:51.781Z,98340.55
2018-07-19T19:56:20.394Z,98336.70
2018-07-19T19:58:48.968Z,98333.55
2018-07-19T20:01:17.574Z,98337.84
2018-07-19T20:03:46.205Z,98340.30
2018-07-19T20:06:14.710Z,98346.61
2018-07-19T20:08:43.271Z,98351.88
2018-07-19T20:11:12.095Z,98346.47
2018-07-19T20:13:40.690Z,98347.00
2018-07-19T20:16:09.230Z,98347.47
2018-07-19T20:18:37.773Z,98348.95
2018-07-19T20:21:06.365Z,98346.39
2018-07-19T20:23:34.876Z,98347.29
2018-07-19T20:26:03.377Z,98345.56
2018-07-19T20:28:32.088Z,98346.68
2018-07-19T20:31:00.627Z,98346.53
2018-07-19T20:33:29.215Z,98343.81
2018-07-19T20:35:57.766Z,98347.37
2018-07-19T20:38:26.361Z,98343.48
2018-07-19T20:40:54.977Z,98342.49
2018-07-19T20:43:23.610Z,98339.45
2018-07-19T20:45:52.158Z,98337.41
2018-07-19T20:48:20.775Z,98342.55
2018-07-19T20:50:49.308Z,98339.98
2018-07-19T20:53:17.908Z,98341.56
2018-07-19T20:55:46.618Z,98343.22
2018-07-19T20:58:15.224Z,98337.67
2018-07-19T21:00:43.739Z,98336.51
2018-07-19T21:03:12.210Z,98337.25
2018-07-19T21:05:40.810Z,98338.36
2018-07-19T21:08:09.311Z,98337.94
2018-07-19T21:10:37.894Z,98342.22
2018-07-19T21:13:06.659Z,98350.62
2018-07-19T21:15:35.219Z,98352.89
2018-07-19T21:18:03.826Z,98352.30
2018-07-19T21:20:32.426Z,98353.48
2018-07-19T21:23:00.979Z,98353.50
2018-07-19T21:25:29.503Z,98354.75
2018-07-19T21:27:58.213Z,98356.42
2018-07-19T21:30:26.803Z,98356.33
2018-07-19T21:32:55.391Z,98361.14
2018-07-19T21:35:23.863Z,98365.59
2018-07-19T21:37:52.387Z,98369.76
2018-07-19T21:40:20.991Z,98368.09
2018-07-19T21:42:49.547Z,98373.11
2018-07-19T21:45:18.187Z,98375.11
2018-07-19T21:47:46.738Z,98370.71
2018-07-19T21:50:15.267Z,98373.38
2018-07-19T21:52:43.914Z,98372.60
2018-07-19T21:55:12.439Z,98361.63
2018-07-19T21:57:40.902Z,98361.31
2018-07-19T22:00:09.526Z,98370.39
2018-07-19T22:02:38.183Z,98370.30
2018-07-19T22:05:06.705Z,98375.87
2018-07-19T22:07:35.326Z,98370.12
2018-07-19T22:10:03.858Z,98372.65
2018-07-19T22:12:32.446Z,98368.56
2018-07-19T22:15:01.007Z,98371.52
2018-07-19T22:17:29.523Z,98370.52
2018-07-19T22:19:58.307Z,98373.03
2018-07-19T22:22:26.855Z,98369.35
2018-07-19T22:24:55.350Z,98363.57
2018-07-19T22:27:23.861Z,98367.36
2018-07-19T22:29:52.489Z,98370.26
2018-07-19T22:32:21.155Z,98376.25
2018-07-19T22:34:49.702Z,98374.76
2018-07-19T22:37:18.260Z,98370.34
2018-07-19T22:39:48.334Z,98370.63
2018-07-19T22:42:16.874Z,98367.80
2018-07-19T22:44:45.449Z,98380.13
2018-07-19T22:47:14.394Z,98371.70
2018-07-19T22:49:42.916Z,98375.94
2018-07-19T22:52:11.394Z,98369.13
2018-07-19T22:54:39.846Z,98379.60
2018-07-19T22:57:08.632Z,98380.92
2018-07-19T22:59:37.138Z,98375.36
2018-07-19T23:02:05.802Z,98375.13
2018-07-19T23:04:34.291Z,98384.41
2018-07-19T23:07:02.807Z,98382.48
2018-07-19T23:09:31.325Z,98380.58
2018-07-19T23:11:59.990Z,98386.97
2018-07-19T23:14:28.594Z,98384.42
2018-07-19T23:16:57.266Z,98390.98
2018-07-19T23:19:25.799Z,98391.81
2018-07-19T23:21:54.308Z,98388.73
2018-07-19T23:24:22.775Z,98394.88
2018-07-19T23:26:51.294Z,98401.80
2018-07-19T23:29:20.075Z,98405.39
2018-07-19T23:31:48.610Z,98409.38
2018-07-19T23:34:17.534Z,98410.17
2018-07-19T23:36:52.666Z,98409.02
2018-07-19T23:39:24.751Z,98405.84
2018-07-19T23:41:57.535Z,98404.31
2018-07-19T23:44:44.871Z,98401.65
2018-07-19T23:47:17.854Z,98405.33
2018-07-19T23:49:46.378Z,98408.56
2018-07-19T23:52:15.154Z,98411.03
2018-07-19T23:54:43.717Z,98402.73
2018-07-19T23:57:15.158Z,98407.48
2018-07-19T23:59:43.775Z,98397.95
